High Prairie, Canada
Current Conditions -  °F | °C
As of 10:00 AM on Monday 24 Nov 2014 (Local Time) from CYPE Reporting Station
Light Snow Light Snow  
Wind Chill:   Ceiling: 300
Heat Index:   Visibility: 10mi
Dew Point:   Wind: 3mph
Humidity: 85%   Direction: 90°E
Pressure: 29.93"   Gusts: NA
Location:  55.43°N, 116.48°W
Report Text: CYPE 241700Z 09003KT 10SM -SN OVC003 M14/M16 A2993 RMK SC8 SLP183
Loading
Personal Weather Stations






























Interactive Weather Map New forecast layout! Learn more

10-Day Weather Forecast

Advertisements
Track Severe Weather on mobile